sensor_id;sensor_type;location;lat;lon;timestamp;P1;durP1;ratioP1;P2;durP2;ratioP2
12980;SDS011;6555;50.468;8.480;2023-04-24T00:04:25;0.40;;;0.40;;
12980;SDS011;6555;50.468;8.480;2023-04-24T00:09:28;0.90;;;0.60;;
12980;SDS011;6555;50.468;8.480;2023-04-24T00:14:33;0.40;;;0.40;;
12980;SDS011;6555;50.468;8.480;2023-04-24T00:19:37;0.60;;;0.60;;
12980;SDS011;6555;50.468;8.480;2023-04-24T00:24:40;0.67;;;0.67;;
12980;SDS011;6555;50.468;8.480;2023-04-24T00:29:45;0.87;;;0.60;;
12980;SDS011;6555;50.468;8.480;2023-04-24T00:34:50;0.90;;;0.60;;
12980;SDS011;6555;50.468;8.480;2023-04-24T00:39:55;0.80;;;0.70;;
12980;SDS011;6555;50.468;8.480;2023-04-24T00:44:59;0.50;;;0.50;;
12980;SDS011;6555;50.468;8.480;2023-04-24T00:50:07;1.20;;;0.77;;
12980;SDS011;6555;50.468;8.480;2023-04-24T00:55:11;1.00;;;0.90;;
12980;SDS011;6555;50.468;8.480;2023-04-24T01:00:15;1.00;;;0.80;;
12980;SDS011;6555;50.468;8.480;2023-04-24T01:05:20;1.43;;;0.80;;
12980;SDS011;6555;50.468;8.480;2023-04-24T01:10:23;0.80;;;0.80;;
12980;SDS011;6555;50.468;8.480;2023-04-24T01:15:30;1.17;;;0.90;;
12980;SDS011;6555;50.468;8.480;2023-04-24T01:20:33;0.87;;;0.67;;
12980;SDS011;6555;50.468;8.480;2023-04-24T01:25:39;1.23;;;0.70;;
12980;SDS011;6555;50.468;8.480;2023-04-24T01:30:43;1.30;;;0.90;;
12980;SDS011;6555;50.468;8.480;2023-04-24T01:35:47;2.27;;;0.87;;
12980;SDS011;6555;50.468;8.480;2023-04-24T01:40:53;0.93;;;0.73;;
12980;SDS011;6555;50.468;8.480;2023-04-24T01:45:58;3.03;;;0.93;;
12980;SDS011;6555;50.468;8.480;2023-04-24T01:51:02;1.13;;;0.67;;
12980;SDS011;6555;50.468;8.480;2023-04-24T01:56:07;0.60;;;0.60;;
12980;SDS011;6555;50.468;8.480;2023-04-24T02:01:14;0.83;;;0.70;;
12980;SDS011;6555;50.468;8.480;2023-04-24T02:06:21;0.80;;;0.80;;
12980;SDS011;6555;50.468;8.480;2023-04-24T02:11:29;0.77;;;0.77;;
12980;SDS011;6555;50.468;8.480;2023-04-24T02:16:34;1.03;;;0.60;;
12980;SDS011;6555;50.468;8.480;2023-04-24T02:21:38;0.30;;;0.30;;
12980;SDS011;6555;50.468;8.480;2023-04-24T02:26:44;0.50;;;0.50;;
12980;SDS011;6555;50.468;8.480;2023-04-24T02:31:47;0.60;;;0.40;;
12980;SDS011;6555;50.468;8.480;2023-04-24T02:36:51;0.60;;;0.50;;
12980;SDS011;6555;50.468;8.480;2023-04-24T02:41:57;0.80;;;0.70;;
12980;SDS011;6555;50.468;8.480;2023-04-24T02:47:01;1.70;;;0.70;;
12980;SDS011;6555;50.468;8.480;2023-04-24T02:52:07;0.40;;;0.40;;
12980;SDS011;6555;50.468;8.480;2023-04-24T02:57:11;1.17;;;0.60;;
12980;SDS011;6555;50.468;8.480;2023-04-24T03:02:17;0.60;;;0.60;;
12980;SDS011;6555;50.468;8.480;2023-04-24T03:07:22;0.73;;;0.73;;
12980;SDS011;6555;50.468;8.480;2023-04-24T03:12:27;0.50;;;0.50;;
12980;SDS011;6555;50.468;8.480;2023-04-24T03:17:31;1.17;;;0.60;;
12980;SDS011;6555;50.468;8.480;2023-04-24T03:22:34;0.60;;;0.60;;
12980;SDS011;6555;50.468;8.480;2023-04-24T03:27:42;0.67;;;0.67;;
12980;SDS011;6555;50.468;8.480;2023-04-24T03:32:55;2.90;;;0.97;;
12980;SDS011;6555;50.468;8.480;2023-04-24T03:38:03;1.20;;;0.93;;
12980;SDS011;6555;50.468;8.480;2023-04-24T03:43:26;1.50;;;1.10;;
12980;SDS011;6555;50.468;8.480;2023-04-24T03:48:33;0.77;;;0.77;;
12980;SDS011;6555;50.468;8.480;2023-04-24T03:53:36;2.13;;;1.10;;
12980;SDS011;6555;50.468;8.480;2023-04-24T03:58:42;1.30;;;1.07;;
12980;SDS011;6555;50.468;8.480;2023-04-24T04:03:45;1.20;;;1.10;;
12980;SDS011;6555;50.468;8.480;2023-04-24T04:08:54;1.40;;;1.30;;
12980;SDS011;6555;50.468;8.480;2023-04-24T04:13:59;2.27;;;1.20;;
12980;SDS011;6555;50.468;8.480;2023-04-24T04:19:08;1.10;;;1.00;;
12980;SDS011;6555;50.468;8.480;2023-04-24T04:24:14;1.10;;;1.00;;
12980;SDS011;6555;50.468;8.480;2023-04-24T04:29:21;1.50;;;1.40;;
12980;SDS011;6555;50.468;8.480;2023-04-24T04:34:26;1.47;;;1.37;;
12980;SDS011;6555;50.468;8.480;2023-04-24T04:39:30;1.37;;;1.27;;
12980;SDS011;6555;50.468;8.480;2023-04-24T04:44:41;3.27;;;1.60;;
12980;SDS011;6555;50.468;8.480;2023-04-24T04:49:51;1.60;;;1.40;;
12980;SDS011;6555;50.468;8.480;2023-04-24T04:55:00;1.60;;;1.40;;
12980;SDS011;6555;50.468;8.480;2023-04-24T05:00:25;1.33;;;1.20;;
12980;SDS011;6555;50.468;8.480;2023-04-24T05:05:31;1.40;;;1.30;;
12980;SDS011;6555;50.468;8.480;2023-04-24T05:10:34;2.23;;;1.30;;
12980;SDS011;6555;50.468;8.480;2023-04-24T05:15:45;1.67;;;1.23;;
12980;SDS011;6555;50.468;8.480;2023-04-24T05:20:49;1.00;;;0.90;;
12980;SDS011;6555;50.468;8.480;2023-04-24T05:25:55;1.20;;;1.10;;
12980;SDS011;6555;50.468;8.480;2023-04-24T05:31:00;1.40;;;1.13;;
12980;SDS011;6555;50.468;8.480;2023-04-24T05:36:04;1.23;;;1.13;;
12980;SDS011;6555;50.468;8.480;2023-04-24T05:41:10;1.30;;;1.20;;
12980;SDS011;6555;50.468;8.480;2023-04-24T05:46:18;1.90;;;1.20;;
12980;SDS011;6555;50.468;8.480;2023-04-24T05:51:21;0.90;;;0.90;;
12980;SDS011;6555;50.468;8.480;2023-04-24T05:56:24;1.40;;;1.30;;
12980;SDS011;6555;50.468;8.480;2023-04-24T06:01:29;3.17;;;2.23;;
12980;SDS011;6555;50.468;8.480;2023-04-24T06:06:41;3.53;;;2.50;;
12980;SDS011;6555;50.468;8.480;2023-04-24T06:11:45;2.10;;;1.90;;
12980;SDS011;6555;50.468;8.480;2023-04-24T06:16:50;1.77;;;1.67;;
12980;SDS011;6555;50.468;8.480;2023-04-24T06:22:06;3.10;;;1.87;;
12980;SDS011;6555;50.468;8.480;2023-04-24T06:27:11;2.10;;;1.90;;
12980;SDS011;6555;50.468;8.480;2023-04-24T06:32:17;2.40;;;2.20;;
12980;SDS011;6555;50.468;8.480;2023-04-24T06:37:21;2.70;;;2.20;;
12980;SDS011;6555;50.468;8.480;2023-04-24T06:42:25;2.70;;;2.50;;
12980;SDS011;6555;50.468;8.480;2023-04-24T06:47:35;3.33;;;2.70;;
12980;SDS011;6555;50.468;8.480;2023-04-24T06:52:40;2.80;;;2.60;;
12980;SDS011;6555;50.468;8.480;2023-04-24T06:57:43;2.87;;;2.60;;
12980;SDS011;6555;50.468;8.480;2023-04-24T07:02:48;3.80;;;3.23;;
12980;SDS011;6555;50.468;8.480;2023-04-24T07:07:52;3.23;;;2.93;;
12980;SDS011;6555;50.468;8.480;2023-04-24T07:12:55;3.57;;;2.87;;
12980;SDS011;6555;50.468;8.480;2023-04-24T07:18:00;3.40;;;2.57;;
12980;SDS011;6555;50.468;8.480;2023-04-24T07:23:06;2.53;;;2.33;;
12980;SDS011;6555;50.468;8.480;2023-04-24T07:28:09;2.73;;;2.43;;
12980;SDS011;6555;50.468;8.480;2023-04-24T07:33:17;2.40;;;2.20;;
12980;SDS011;6555;50.468;8.480;2023-04-24T07:38:20;2.50;;;2.30;;
12980;SDS011;6555;50.468;8.480;2023-04-24T07:43:24;2.80;;;2.30;;
12980;SDS011;6555;50.468;8.480;2023-04-24T07:48:29;2.50;;;2.30;;
12980;SDS011;6555;50.468;8.480;2023-04-24T07:53:32;2.10;;;1.90;;
12980;SDS011;6555;50.468;8.480;2023-04-24T07:58:36;3.17;;;2.10;;
12980;SDS011;6555;50.468;8.480;2023-04-24T08:03:43;2.40;;;2.00;;
12980;SDS011;6555;50.468;8.480;2023-04-24T08:08:47;3.97;;;2.30;;
12980;SDS011;6555;50.468;8.480;2023-04-24T08:13:50;2.03;;;1.83;;
12980;SDS011;6555;50.468;8.480;2023-04-24T08:18:55;2.30;;;2.10;;
12980;SDS011;6555;50.468;8.480;2023-04-24T08:23:58;2.37;;;2.00;;
12980;SDS011;6555;50.468;8.480;2023-04-24T08:29:04;2.73;;;2.00;;
12980;SDS011;6555;50.468;8.480;2023-04-24T08:34:09;5.20;;;2.17;;
12980;SDS011;6555;50.468;8.480;2023-04-24T08:39:13;2.03;;;1.87;;
12980;SDS011;6555;50.468;8.480;2023-04-24T08:44:17;2.70;;;2.10;;
12980;SDS011;6555;50.468;8.480;2023-04-24T08:49:23;1.70;;;1.60;;
12980;SDS011;6555;50.468;8.480;2023-04-24T08:54:34;2.93;;;2.23;;
12980;SDS011;6555;50.468;8.480;2023-04-24T08:59:39;2.27;;;1.70;;
12980;SDS011;6555;50.468;8.480;2023-04-24T09:04:44;1.90;;;1.70;;
12980;SDS011;6555;50.468;8.480;2023-04-24T09:09:50;1.70;;;1.60;;
12980;SDS011;6555;50.468;8.480;2023-04-24T09:14:54;2.00;;;1.83;;
12980;SDS011;6555;50.468;8.480;2023-04-24T09:20:00;2.20;;;2.00;;
12980;SDS011;6555;50.468;8.480;2023-04-24T09:25:05;2.00;;;1.60;;
12980;SDS011;6555;50.468;8.480;2023-04-24T09:30:09;2.00;;;1.80;;
12980;SDS011;6555;50.468;8.480;2023-04-24T09:35:15;1.60;;;1.50;;
12980;SDS011;6555;50.468;8.480;2023-04-24T09:40:22;1.60;;;1.50;;
12980;SDS011;6555;50.468;8.480;2023-04-24T09:45:34;1.50;;;1.40;;
12980;SDS011;6555;50.468;8.480;2023-04-24T09:50:42;1.70;;;1.60;;
12980;SDS011;6555;50.468;8.480;2023-04-24T09:55:48;1.50;;;1.40;;
12980;SDS011;6555;50.468;8.480;2023-04-24T10:00:53;1.40;;;1.30;;
12980;SDS011;6555;50.468;8.480;2023-04-24T10:05:59;1.60;;;1.07;;
12980;SDS011;6555;50.468;8.480;2023-04-24T10:11:03;1.00;;;1.00;;
12980;SDS011;6555;50.468;8.480;2023-04-24T10:16:08;1.13;;;1.03;;
12980;SDS011;6555;50.468;8.480;2023-04-24T10:21:14;0.70;;;0.70;;
12980;SDS011;6555;50.468;8.480;2023-04-24T10:26:19;2.20;;;0.90;;
12980;SDS011;6555;50.468;8.480;2023-04-24T10:31:23;0.80;;;0.80;;
12980;SDS011;6555;50.468;8.480;2023-04-24T10:36:31;0.30;;;0.30;;
12980;SDS011;6555;50.468;8.480;2023-04-24T10:41:36;0.30;;;0.30;;
12980;SDS011;6555;50.468;8.480;2023-04-24T10:46:43;0.47;;;0.47;;
12980;SDS011;6555;50.468;8.480;2023-04-24T10:51:49;0.60;;;0.60;;
12980;SDS011;6555;50.468;8.480;2023-04-24T11:02:37;1.10;;;0.83;;
12980;SDS011;6555;50.468;8.480;2023-04-24T11:08:11;0.87;;;0.60;;
12980;SDS011;6555;50.468;8.480;2023-04-24T11:13:15;0.83;;;0.83;;
12980;SDS011;6555;50.468;8.480;2023-04-24T11:18:19;0.80;;;0.80;;
12980;SDS011;6555;50.468;8.480;2023-04-24T11:23:24;0.90;;;0.83;;
12980;SDS011;6555;50.468;8.480;2023-04-24T11:28:27;1.60;;;0.80;;
12980;SDS011;6555;50.468;8.480;2023-04-24T11:33:31;0.80;;;0.70;;
12980;SDS011;6555;50.468;8.480;2023-04-24T11:38:36;0.70;;;0.70;;
12980;SDS011;6555;50.468;8.480;2023-04-24T11:43:40;0.53;;;0.53;;
12980;SDS011;6555;50.468;8.480;2023-04-24T11:48:48;0.73;;;0.73;;
12980;SDS011;6555;50.468;8.480;2023-04-24T11:53:52;0.80;;;0.80;;
12980;SDS011;6555;50.468;8.480;2023-04-24T11:59:05;0.73;;;0.73;;
12980;SDS011;6555;50.468;8.480;2023-04-24T12:04:08;0.50;;;0.50;;
12980;SDS011;6555;50.468;8.480;2023-04-24T12:09:14;0.53;;;0.50;;
12980;SDS011;6555;50.468;8.480;2023-04-24T12:14:19;0.60;;;0.60;;
12980;SDS011;6555;50.468;8.480;2023-04-24T12:19:22;0.70;;;0.60;;
12980;SDS011;6555;50.468;8.480;2023-04-24T12:24:29;0.53;;;0.53;;
12980;SDS011;6555;50.468;8.480;2023-04-24T12:29:32;0.70;;;0.70;;
12980;SDS011;6555;50.468;8.480;2023-04-24T12:34:36;0.77;;;0.77;;
12980;SDS011;6555;50.468;8.480;2023-04-24T12:39:42;1.00;;;0.90;;
12980;SDS011;6555;50.468;8.480;2023-04-24T12:45:01;0.87;;;0.87;;
12980;SDS011;6555;50.468;8.480;2023-04-24T12:50:06;1.37;;;1.10;;
12980;SDS011;6555;50.468;8.480;2023-04-24T12:55:15;1.20;;;1.10;;
12980;SDS011;6555;50.468;8.480;2023-04-24T13:00:19;1.30;;;1.20;;
12980;SDS011;6555;50.468;8.480;2023-04-24T13:05:23;1.50;;;1.40;;
12980;SDS011;6555;50.468;8.480;2023-04-24T13:10:28;1.73;;;1.60;;
12980;SDS011;6555;50.468;8.480;2023-04-24T13:15:33;1.30;;;1.20;;
12980;SDS011;6555;50.468;8.480;2023-04-24T13:20:37;1.83;;;1.50;;
12980;SDS011;6555;50.468;8.480;2023-04-24T13:25:43;1.23;;;1.13;;
12980;SDS011;6555;50.468;8.480;2023-04-24T13:30:47;1.13;;;1.03;;
12980;SDS011;6555;50.468;8.480;2023-04-24T13:35:52;1.80;;;1.57;;
12980;SDS011;6555;50.468;8.480;2023-04-24T13:40:57;2.03;;;1.80;;
12980;SDS011;6555;50.468;8.480;2023-04-24T13:46:00;2.80;;;1.70;;
12980;SDS011;6555;50.468;8.480;2023-04-24T13:51:04;1.83;;;1.73;;
12980;SDS011;6555;50.468;8.480;2023-04-24T13:56:09;2.67;;;1.93;;
12980;SDS011;6555;50.468;8.480;2023-04-24T14:01:14;3.13;;;1.87;;
12980;SDS011;6555;50.468;8.480;2023-04-24T14:06:18;2.10;;;1.70;;
12980;SDS011;6555;50.468;8.480;2023-04-24T14:11:23;4.03;;;1.87;;
12980;SDS011;6555;50.468;8.480;2023-04-24T14:16:26;2.43;;;1.90;;
12980;SDS011;6555;50.468;8.480;2023-04-24T14:21:38;2.23;;;2.03;;
12980;SDS011;6555;50.468;8.480;2023-04-24T14:26:43;2.23;;;1.90;;
12980;SDS011;6555;50.468;8.480;2023-04-24T14:31:48;3.40;;;1.83;;
12980;SDS011;6555;50.468;8.480;2023-04-24T14:36:52;2.83;;;1.60;;
12980;SDS011;6555;50.468;8.480;2023-04-24T14:41:57;2.67;;;2.20;;
12980;SDS011;6555;50.468;8.480;2023-04-24T14:47:00;4.10;;;2.60;;
12980;SDS011;6555;50.468;8.480;2023-04-24T14:52:04;3.90;;;2.10;;
12980;SDS011;6555;50.468;8.480;2023-04-24T14:57:12;3.07;;;2.17;;
12980;SDS011;6555;50.468;8.480;2023-04-24T15:02:17;4.17;;;2.40;;
12980;SDS011;6555;50.468;8.480;2023-04-24T15:07:32;1.83;;;1.70;;
12980;SDS011;6555;50.468;8.480;2023-04-24T15:12:42;2.80;;;2.10;;
12980;SDS011;6555;50.468;8.480;2023-04-24T15:17:53;2.60;;;1.60;;
12980;SDS011;6555;50.468;8.480;2023-04-24T15:23:09;2.70;;;1.60;;
12980;SDS011;6555;50.468;8.480;2023-04-24T15:35:29;2.03;;;1.70;;
12980;SDS011;6555;50.468;8.480;2023-04-24T15:54:29;3.53;;;2.20;;
12980;SDS011;6555;50.468;8.480;2023-04-24T16:01:08;2.63;;;2.10;;
12980;SDS011;6555;50.468;8.480;2023-04-24T16:12:39;2.60;;;1.87;;
12980;SDS011;6555;50.468;8.480;2023-04-24T16:18:20;2.60;;;1.90;;
12980;SDS011;6555;50.468;8.480;2023-04-24T16:29:52;2.40;;;2.10;;
12980;SDS011;6555;50.468;8.480;2023-04-24T16:35:00;3.17;;;2.40;;
12980;SDS011;6555;50.468;8.480;2023-04-24T16:41:26;1.73;;;1.60;;
12980;SDS011;6555;50.468;8.480;2023-04-24T16:53:02;2.13;;;1.70;;
12980;SDS011;6555;50.468;8.480;2023-04-24T16:59:16;1.77;;;1.30;;
12980;SDS011;6555;50.468;8.480;2023-04-24T17:04:30;1.60;;;1.50;;
12980;SDS011;6555;50.468;8.480;2023-04-24T17:09:42;3.67;;;1.60;;
12980;SDS011;6555;50.468;8.480;2023-04-24T17:14:55;2.20;;;1.90;;
12980;SDS011;6555;50.468;8.480;2023-04-24T17:20:11;2.00;;;1.50;;
12980;SDS011;6555;50.468;8.480;2023-04-24T17:25:56;4.13;;;1.97;;
12980;SDS011;6555;50.468;8.480;2023-04-24T17:31:13;3.00;;;1.77;;
12980;SDS011;6555;50.468;8.480;2023-04-24T17:36:43;1.90;;;1.73;;
12980;SDS011;6555;50.468;8.480;2023-04-24T17:42:00;3.00;;;1.60;;
12980;SDS011;6555;50.468;8.480;2023-04-24T17:47:32;1.93;;;1.73;;
12980;SDS011;6555;50.468;8.480;2023-04-24T17:52:51;1.90;;;1.57;;
12980;SDS011;6555;50.468;8.480;2023-04-24T17:58:25;2.13;;;1.80;;
12980;SDS011;6555;50.468;8.480;2023-04-24T18:03:46;3.03;;;1.63;;
12980;SDS011;6555;50.468;8.480;2023-04-24T18:09:22;1.73;;;1.53;;
12980;SDS011;6555;50.468;8.480;2023-04-24T18:14:40;2.10;;;1.50;;
12980;SDS011;6555;50.468;8.480;2023-04-24T18:20:26;1.90;;;1.77;;
12980;SDS011;6555;50.468;8.480;2023-04-24T18:25:42;1.87;;;1.53;;
12980;SDS011;6555;50.468;8.480;2023-04-24T18:31:16;1.47;;;1.37;;
12980;SDS011;6555;50.468;8.480;2023-04-24T18:36:33;1.83;;;1.43;;
12980;SDS011;6555;50.468;8.480;2023-04-24T18:42:03;2.57;;;1.60;;
12980;SDS011;6555;50.468;8.480;2023-04-24T18:47:26;1.83;;;1.33;;
12980;SDS011;6555;50.468;8.480;2023-04-24T18:52:59;1.90;;;1.57;;
12980;SDS011;6555;50.468;8.480;2023-04-24T18:58:17;1.73;;;1.60;;
12980;SDS011;6555;50.468;8.480;2023-04-24T19:03:51;1.33;;;1.23;;
12980;SDS011;6555;50.468;8.480;2023-04-24T19:09:17;1.33;;;1.23;;
12980;SDS011;6555;50.468;8.480;2023-04-24T19:14:47;1.60;;;1.20;;
12980;SDS011;6555;50.468;8.480;2023-04-24T19:20:07;3.43;;;2.60;;
12980;SDS011;6555;50.468;8.480;2023-04-24T19:25:41;2.33;;;2.13;;
12980;SDS011;6555;50.468;8.480;2023-04-24T19:31:44;2.50;;;2.30;;
12980;SDS011;6555;50.468;8.480;2023-04-24T19:49:45;2.67;;;2.20;;
12980;SDS011;6555;50.468;8.480;2023-04-24T20:00:20;2.50;;;2.17;;
12980;SDS011;6555;50.468;8.480;2023-04-24T20:11:51;2.33;;;2.00;;
12980;SDS011;6555;50.468;8.480;2023-04-24T20:17:13;2.20;;;2.00;;
12980;SDS011;6555;50.468;8.480;2023-04-24T20:22:46;3.70;;;2.80;;
12980;SDS011;6555;50.468;8.480;2023-04-24T20:28:09;2.53;;;2.33;;
12980;SDS011;6555;50.468;8.480;2023-04-24T20:33:40;2.93;;;2.60;;
12980;SDS011;6555;50.468;8.480;2023-04-24T20:39:00;2.77;;;2.17;;
12980;SDS011;6555;50.468;8.480;2023-04-24T20:44:38;2.70;;;2.03;;
12980;SDS011;6555;50.468;8.480;2023-04-24T20:49:57;2.47;;;2.20;;
12980;SDS011;6555;50.468;8.480;2023-04-24T20:55:28;2.10;;;1.90;;
12980;SDS011;6555;50.468;8.480;2023-04-24T21:00:48;2.43;;;2.13;;
12980;SDS011;6555;50.468;8.480;2023-04-24T21:06:34;5.20;;;2.07;;
12980;SDS011;6555;50.468;8.480;2023-04-24T21:11:50;2.10;;;1.90;;
12980;SDS011;6555;50.468;8.480;2023-04-24T21:17:21;2.70;;;2.03;;
12980;SDS011;6555;50.468;8.480;2023-04-24T21:22:40;2.40;;;2.00;;
12980;SDS011;6555;50.468;8.480;2023-04-24T21:28:12;2.40;;;2.20;;
12980;SDS011;6555;50.468;8.480;2023-04-24T21:33:28;2.27;;;2.00;;
12980;SDS011;6555;50.468;8.480;2023-04-24T21:39:00;1.80;;;1.60;;
12980;SDS011;6555;50.468;8.480;2023-04-24T21:44:20;2.30;;;2.10;;
12980;SDS011;6555;50.468;8.480;2023-04-24T21:49:53;2.27;;;1.90;;
12980;SDS011;6555;50.468;8.480;2023-04-24T21:55:15;1.80;;;1.70;;
12980;SDS011;6555;50.468;8.480;2023-04-24T22:00:45;1.60;;;1.50;;
12980;SDS011;6555;50.468;8.480;2023-04-24T22:06:02;2.27;;;1.90;;
12980;SDS011;6555;50.468;8.480;2023-04-24T22:11:34;3.57;;;2.33;;
12980;SDS011;6555;50.468;8.480;2023-04-24T22:16:51;2.40;;;2.20;;
12980;SDS011;6555;50.468;8.480;2023-04-24T22:22:31;2.87;;;2.33;;
12980;SDS011;6555;50.468;8.480;2023-04-24T22:27:50;3.40;;;2.70;;
12980;SDS011;6555;50.468;8.480;2023-04-24T22:33:22;2.50;;;2.27;;
12980;SDS011;6555;50.468;8.480;2023-04-24T22:38:39;2.70;;;2.50;;
12980;SDS011;6555;50.468;8.480;2023-04-24T22:44:18;3.07;;;2.50;;
12980;SDS011;6555;50.468;8.480;2023-04-24T22:49:38;2.50;;;2.30;;
12980;SDS011;6555;50.468;8.480;2023-04-24T22:55:09;3.40;;;2.47;;
12980;SDS011;6555;50.468;8.480;2023-04-24T23:00:30;2.83;;;1.97;;
12980;SDS011;6555;50.468;8.480;2023-04-24T23:06:00;3.40;;;2.30;;
12980;SDS011;6555;50.468;8.480;2023-04-24T23:11:18;3.43;;;2.17;;
12980;SDS011;6555;50.468;8.480;2023-04-24T23:16:50;2.10;;;1.90;;
12980;SDS011;6555;50.468;8.480;2023-04-24T23:22:06;2.40;;;2.20;;
12980;SDS011;6555;50.468;8.480;2023-04-24T23:27:36;2.63;;;2.43;;
12980;SDS011;6555;50.468;8.480;2023-04-24T23:32:55;2.53;;;2.27;;
12980;SDS011;6555;50.468;8.480;2023-04-24T23:38:27;2.50;;;2.30;;
12980;SDS011;6555;50.468;8.480;2023-04-24T23:43:55;3.53;;;2.47;;
12980;SDS011;6555;50.468;8.480;2023-04-24T23:49:27;3.93;;;2.80;;
12980;SDS011;6555;50.468;8.480;2023-04-24T23:54:43;3.27;;;2.73;;
